createdAt,value
2023-04-14T00:01:35.606Z,2.20
2023-04-14T00:04:05.148Z,3.47
2023-04-14T00:06:39.488Z,2.50
2023-04-14T00:09:06.236Z,2.33
2023-04-14T00:11:35.299Z,2.90
2023-04-14T00:14:03.244Z,1.90
2023-04-14T00:16:35.118Z,2.20
2023-04-14T00:19:04.323Z,1.97
2023-04-14T00:21:35.536Z,2.13
2023-04-14T00:24:02.359Z,2.10
2023-04-14T00:26:34.272Z,2.20
2023-04-14T00:29:05.567Z,2.50
2023-04-14T00:31:34.878Z,2.30
2023-04-14T00:34:04.759Z,1.90
2023-04-14T00:36:33.892Z,2.47
2023-04-14T00:39:01.495Z,3.00
2023-04-14T00:41:33.965Z,1.63
2023-04-14T00:44:08.133Z,2.13
2023-04-14T00:46:38.856Z,2.00
2023-04-14T00:49:07.943Z,2.07
2023-04-14T00:51:40.013Z,2.20
2023-04-14T00:54:15.147Z,2.37
2023-04-14T00:56:42.280Z,1.90
2023-04-14T00:59:10.185Z,2.53
2023-04-14T01:01:40.750Z,2.30
2023-04-14T01:04:12.521Z,2.43
2023-04-14T01:06:39.294Z,1.90
2023-04-14T01:09:13.232Z,1.80
2023-04-14T01:11:51.705Z,1.70
2023-04-14T01:14:43.780Z,1.77
2023-04-14T01:17:53.992Z,1.60
2023-04-14T01:20:35.336Z,1.50
2023-04-14T01:23:09.137Z,1.93
2023-04-14T01:26:22.168Z,1.50
2023-04-14T01:29:03.644Z,1.40
2023-04-14T01:31:56.379Z,1.20
2023-04-14T01:34:57.687Z,1.27
2023-04-14T01:37:41.488Z,1.10
2023-04-14T01:40:18.182Z,1.20
2023-04-14T01:42:51.073Z,1.20
2023-04-14T01:45:26.731Z,1.30
2023-04-14T01:47:59.591Z,1.47
2023-04-14T01:50:31.646Z,1.80
2023-04-14T01:53:01.189Z,1.33
2023-04-14T01:55:31.146Z,1.17
2023-04-14T01:58:01.791Z,1.03
2023-04-14T02:00:34.668Z,1.00
2023-04-14T02:03:05.265Z,1.37
2023-04-14T02:05:35.772Z,1.50
2023-04-14T02:08:06.376Z,1.70
2023-04-14T02:10:38.240Z,0.90
2023-04-14T02:13:13.771Z,1.70
2023-04-14T02:15:46.508Z,2.13
2023-04-14T02:18:24.480Z,1.47
2023-04-14T02:20:58.546Z,1.37
2023-04-14T02:23:30.736Z,1.27
2023-04-14T02:26:21.879Z,1.50
2023-04-14T02:28:57.780Z,1.60
2023-04-14T02:31:27.283Z,1.27
2023-04-14T02:34:01.892Z,1.47
2023-04-14T02:36:37.790Z,1.70
2023-04-14T02:39:24.246Z,1.47
2023-04-14T02:42:06.030Z,1.27
2023-04-14T02:44:48.706Z,2.07
2023-04-14T02:47:34.885Z,1.87
2023-04-14T02:50:11.900Z,2.10
2023-04-14T02:52:51.765Z,2.27
2023-04-14T02:55:22.977Z,2.23
2023-04-14T02:57:54.199Z,2.23
2023-04-14T03:00:29.895Z,2.30
2023-04-14T03:02:58.246Z,3.10
2023-04-14T03:05:28.641Z,2.50
2023-04-14T03:08:05.779Z,2.53
2023-04-14T03:10:38.318Z,2.57
2023-04-14T03:13:09.897Z,2.20
2023-04-14T03:15:39.246Z,2.17
2023-04-14T03:18:09.379Z,1.60
2023-04-14T03:20:39.552Z,1.50
2023-04-14T03:23:15.748Z,1.80
2023-04-14T03:25:53.167Z,1.23
2023-04-14T03:28:34.489Z,1.27
2023-04-14T03:31:09.000Z,1.20
2023-04-14T03:33:49.389Z,1.70
2023-04-14T03:36:21.832Z,1.60
2023-04-14T03:38:55.875Z,1.80
2023-04-14T03:41:28.598Z,2.00
2023-04-14T03:44:00.469Z,1.50
2023-04-14T03:46:30.558Z,2.00
2023-04-14T03:49:06.847Z,1.73
2023-04-14T03:51:41.666Z,1.63
2023-04-14T03:54:15.975Z,2.00
2023-04-14T03:56:45.561Z,1.57
2023-04-14T03:59:20.923Z,2.10
2023-04-14T04:01:51.956Z,1.80
2023-04-14T04:04:28.336Z,2.17
2023-04-14T04:07:02.133Z,2.47
2023-04-14T04:09:34.128Z,2.13
2023-04-14T04:12:07.780Z,2.33
2023-04-14T04:14:40.488Z,2.20
2023-04-14T04:17:09.797Z,3.13
2023-04-14T04:19:37.427Z,3.13
2023-04-14T04:22:08.110Z,2.70
2023-04-14T04:24:41.771Z,3.43
2023-04-14T04:27:27.772Z,3.10
2023-04-14T04:30:04.024Z,3.63
2023-04-14T04:32:39.009Z,3.77
2023-04-14T04:35:10.710Z,4.20
2023-04-14T04:37:42.413Z,4.27
2023-04-14T04:40:12.683Z,4.23
2023-04-14T04:42:45.626Z,4.30
2023-04-14T04:45:44.393Z,3.37
2023-04-14T04:48:13.617Z,3.57
2023-04-14T04:50:48.758Z,3.70
2023-04-14T04:53:20.910Z,5.07
2023-04-14T04:55:52.577Z,5.33
2023-04-14T04:58:19.319Z,3.60
2023-04-14T05:00:54.676Z,3.63
2023-04-14T05:03:23.954Z,3.50
2023-04-14T05:05:55.453Z,3.30
2023-04-14T05:08:24.483Z,4.00
2023-04-14T05:10:56.208Z,2.87
2023-04-14T05:13:23.057Z,3.37
2023-04-14T05:15:54.733Z,3.27
2023-04-14T05:18:23.593Z,3.00
2023-04-14T05:20:50.369Z,3.43
2023-04-14T05:23:21.890Z,5.50
2023-04-14T05:25:48.718Z,4.47
2023-04-14T05:28:17.997Z,3.83
2023-04-14T05:30:50.323Z,2.93
2023-04-14T05:33:17.461Z,3.03
2023-04-14T05:35:50.924Z,3.27
2023-04-14T05:38:21.478Z,2.73
2023-04-14T05:40:48.510Z,3.10
2023-04-14T05:43:20.146Z,3.67
2023-04-14T05:45:47.427Z,3.33
2023-04-14T05:48:18.009Z,3.50
2023-04-14T05:50:47.400Z,3.83
2023-04-14T05:53:16.485Z,4.40
2023-04-14T05:55:48.941Z,4.00
2023-04-14T05:58:18.361Z,4.30
2023-04-14T06:00:47.634Z,4.03
2023-04-14T06:03:21.914Z,3.40
2023-04-14T06:05:48.917Z,3.60
2023-04-14T06:08:18.866Z,4.03
2023-04-14T06:10:47.982Z,3.57
2023-04-14T06:13:17.196Z,3.10
2023-04-14T06:15:43.947Z,4.03
2023-04-14T06:18:14.857Z,3.40
2023-04-14T06:20:49.120Z,4.57
2023-04-14T06:23:21.850Z,3.63
2023-04-14T06:25:48.823Z,4.00
2023-04-14T06:28:18.990Z,3.70
2023-04-14T06:30:47.979Z,3.90
2023-04-14T06:33:19.729Z,4.43
2023-04-14T06:35:49.103Z,3.40
2023-04-14T06:38:18.168Z,3.57
2023-04-14T06:40:47.198Z,3.33
2023-04-14T06:43:21.513Z,3.53
2023-04-14T06:45:51.046Z,3.37
2023-04-14T06:48:20.513Z,3.97
2023-04-14T06:51:01.060Z,3.30
2023-04-14T06:53:30.515Z,3.37
2023-04-14T06:56:06.060Z,3.43
2023-04-14T06:58:40.645Z,3.47
2023-04-14T07:01:14.683Z,4.03
2023-04-14T07:03:47.211Z,3.67
2023-04-14T07:06:17.231Z,3.50
2023-04-14T07:08:46.877Z,3.63
2023-04-14T07:11:16.137Z,3.00
2023-04-14T07:13:47.478Z,4.00
2023-04-14T07:16:16.896Z,3.97
2023-04-14T07:18:48.322Z,3.03
2023-04-14T07:21:17.537Z,4.60
2023-04-14T07:23:49.089Z,3.80
2023-04-14T07:26:18.324Z,3.13
2023-04-14T07:28:47.361Z,3.10
2023-04-14T07:31:18.773Z,4.00
2023-04-14T07:33:56.132Z,3.30
2023-04-14T07:36:28.857Z,3.40
2023-04-14T07:39:04.160Z,3.23
2023-04-14T07:41:33.809Z,3.47
2023-04-14T07:44:00.917Z,2.90
2023-04-14T07:46:33.313Z,3.13
2023-04-14T07:49:02.554Z,3.43
2023-04-14T07:51:36.525Z,3.80
2023-04-14T07:54:11.445Z,2.60
2023-04-14T07:56:40.557Z,3.00
2023-04-14T07:59:12.869Z,3.50
2023-04-14T08:01:42.685Z,3.60
2023-04-14T08:04:15.350Z,3.00
2023-04-14T08:06:49.823Z,3.03
2023-04-14T08:09:18.785Z,3.00
2023-04-14T08:11:48.100Z,2.87
2023-04-14T08:14:19.284Z,2.53
2023-04-14T08:16:53.916Z,3.20
2023-04-14T08:19:21.100Z,2.50
2023-04-14T08:21:52.997Z,2.77
2023-04-14T08:24:23.105Z,2.63
2023-04-14T08:26:49.903Z,2.93
2023-04-14T08:29:18.976Z,3.27
2023-04-14T08:31:48.088Z,2.70
2023-04-14T08:34:21.637Z,3.10
2023-04-14T08:37:10.186Z,3.00
2023-04-14T08:39:42.522Z,3.30
2023-04-14T08:42:09.744Z,2.80
2023-04-14T08:44:37.588Z,3.33
2023-04-14T08:47:08.263Z,3.43
2023-04-14T08:49:50.187Z,3.30
2023-04-14T08:52:23.758Z,3.27
2023-04-14T08:54:55.187Z,3.33
2023-04-14T08:57:27.861Z,3.50
2023-04-14T08:59:58.896Z,2.97
2023-04-14T09:02:28.275Z,4.03
2023-04-14T09:05:02.068Z,3.10
2023-04-14T09:07:36.611Z,3.27
2023-04-14T09:10:06.780Z,3.17
2023-04-14T09:12:41.786Z,3.40
2023-04-14T09:15:14.400Z,3.10
2023-04-14T09:17:44.592Z,3.23
2023-04-14T09:20:38.700Z,3.43
2023-04-14T09:23:06.505Z,3.13
2023-04-14T09:25:39.361Z,2.67
2023-04-14T09:28:13.763Z,2.80
2023-04-14T09:30:43.467Z,3.00
2023-04-14T09:33:27.129Z,3.50
2023-04-14T09:35:56.473Z,2.70
2023-04-14T09:38:34.974Z,3.37
2023-04-14T09:41:15.626Z,3.50
2023-04-14T09:43:47.337Z,3.20
2023-04-14T09:46:16.630Z,3.80
2023-04-14T09:48:55.666Z,2.73
2023-04-14T09:51:33.322Z,3.13
2023-04-14T09:54:06.518Z,2.33
2023-04-14T09:56:36.714Z,2.10
2023-04-14T09:59:10.896Z,2.93
2023-04-14T10:01:37.920Z,2.90
2023-04-14T10:04:24.249Z,3.47
2023-04-14T10:06:57.947Z,2.87
2023-04-14T10:09:29.016Z,2.50
2023-04-14T10:12:10.369Z,3.57
2023-04-14T10:14:44.015Z,2.70
2023-04-14T10:17:13.860Z,3.33
2023-04-14T10:19:45.343Z,3.13
2023-04-14T10:22:12.425Z,2.87
2023-04-14T10:24:43.707Z,3.27
2023-04-14T10:27:13.470Z,3.40
2023-04-14T10:29:44.854Z,3.20
2023-04-14T10:32:16.180Z,2.33
2023-04-14T10:35:18.818Z,2.40
2023-04-14T10:37:59.099Z,2.40
2023-04-14T10:40:26.218Z,2.63
2023-04-14T10:42:58.874Z,3.57
2023-04-14T10:45:32.962Z,2.97
2023-04-14T10:48:03.089Z,2.37
2023-04-14T10:50:47.742Z,2.80
2023-04-14T10:53:21.806Z,2.30
2023-04-14T10:55:54.420Z,2.63
2023-04-14T10:58:29.567Z,2.93
2023-04-14T11:01:24.458Z,2.90
2023-04-14T11:03:56.991Z,2.70
2023-04-14T11:06:46.331Z,2.80
2023-04-14T11:09:37.661Z,2.47
2023-04-14T11:12:28.933Z,3.60
2023-04-14T11:15:07.572Z,3.07
2023-04-14T11:17:43.459Z,2.53
2023-04-14T11:20:25.335Z,3.00
2023-04-14T11:22:57.792Z,2.73
2023-04-14T11:25:25.209Z,2.33
2023-04-14T11:27:54.601Z,3.37
2023-04-14T11:30:27.380Z,2.70
2023-04-14T11:32:58.161Z,2.50
2023-04-14T11:35:27.438Z,3.20
2023-04-14T11:38:02.957Z,2.10
2023-04-14T11:40:37.943Z,2.37
2023-04-14T11:43:08.109Z,1.83
2023-04-14T11:45:35.109Z,2.40
2023-04-14T11:48:02.031Z,1.97
2023-04-14T11:50:39.284Z,2.53
2023-04-14T11:53:13.077Z,2.20
2023-04-14T11:55:46.028Z,2.03
2023-04-14T11:58:16.202Z,2.50
2023-04-14T12:00:48.461Z,2.20
2023-04-14T12:03:18.148Z,2.10
2023-04-14T12:05:48.588Z,2.07
2023-04-14T12:08:19.308Z,2.07
2023-04-14T12:10:48.655Z,1.37
2023-04-14T12:13:21.792Z,1.67
2023-04-14T12:15:54.523Z,1.40
2023-04-14T12:18:22.062Z,3.10
2023-04-14T12:21:01.994Z,2.10
2023-04-14T12:23:28.970Z,1.27
2023-04-14T12:25:58.021Z,1.60
2023-04-14T12:28:25.458Z,1.87
2023-04-14T12:30:59.809Z,1.27
2023-04-14T12:33:30.956Z,1.60
2023-04-14T12:36:12.195Z,1.73
2023-04-14T12:38:41.713Z,2.10
2023-04-14T12:41:11.131Z,1.80
2023-04-14T12:43:40.760Z,1.93
2023-04-14T12:46:10.185Z,2.80
2023-04-14T12:48:49.670Z,2.23
2023-04-14T12:51:18.541Z,2.40
2023-04-14T12:53:51.618Z,2.10
2023-04-14T12:56:23.679Z,1.60
2023-04-14T12:58:52.686Z,1.60
2023-04-14T13:01:22.905Z,1.90
2023-04-14T13:03:57.981Z,1.97
2023-04-14T13:06:31.692Z,3.30
2023-04-14T13:08:58.560Z,2.33
2023-04-14T13:11:27.903Z,2.33
2023-04-14T13:13:59.548Z,1.80
2023-04-14T13:16:31.184Z,1.10
2023-04-14T13:19:00.768Z,1.30
2023-04-14T13:21:27.801Z,1.27
2023-04-14T13:23:54.562Z,0.90
2023-04-14T13:26:23.636Z,1.40
2023-04-14T13:28:51.015Z,1.10
2023-04-14T13:31:20.076Z,1.10
2023-04-14T13:33:53.855Z,0.90
2023-04-14T13:36:23.711Z,0.90
2023-04-14T13:38:50.559Z,1.40
2023-04-14T13:41:22.965Z,1.40
2023-04-14T13:43:54.506Z,1.13
2023-04-14T13:46:21.350Z,1.20
2023-04-14T13:48:52.627Z,1.17
2023-04-14T13:51:21.994Z,1.67
2023-04-14T13:53:48.859Z,1.20
2023-04-14T13:56:22.812Z,0.70
2023-04-14T13:58:54.674Z,0.90
2023-04-14T14:01:24.128Z,0.83
2023-04-14T14:03:53.422Z,1.37
2023-04-14T14:06:27.873Z,1.00
2023-04-14T14:09:05.512Z,1.10
2023-04-14T14:11:35.652Z,1.57
2023-04-14T14:14:06.959Z,1.73
2023-04-14T14:16:37.514Z,1.30
2023-04-14T14:19:08.131Z,1.70
2023-04-14T14:21:37.219Z,1.40
2023-04-14T14:24:06.571Z,1.70
2023-04-14T14:26:33.424Z,1.90
2023-04-14T14:29:04.780Z,1.73
2023-04-14T14:31:35.682Z,1.13
2023-04-14T14:34:05.100Z,1.00
2023-04-14T14:36:34.211Z,0.90
2023-04-14T14:39:01.204Z,1.07
2023-04-14T14:41:27.987Z,1.03
2023-04-14T14:43:58.564Z,1.00
2023-04-14T14:46:33.196Z,1.13
2023-04-14T14:49:02.428Z,0.93
2023-04-14T14:51:34.164Z,0.70
2023-04-14T14:54:10.375Z,1.10
2023-04-14T14:56:39.516Z,0.73
2023-04-14T14:59:06.652Z,1.17
2023-04-14T15:01:37.058Z,0.80
2023-04-14T15:04:12.366Z,0.87
2023-04-14T15:06:41.541Z,1.13
2023-04-14T15:09:16.711Z,0.80
2023-04-14T15:11:43.552Z,0.80
2023-04-14T15:14:10.359Z,1.10
2023-04-14T15:16:42.178Z,1.20
2023-04-14T15:19:09.042Z,0.90
2023-04-14T15:21:41.014Z,1.00
2023-04-14T15:24:10.199Z,1.27
2023-04-14T15:26:37.267Z,1.47
2023-04-14T15:29:08.842Z,1.70
2023-04-14T15:31:40.584Z,1.00
2023-04-14T15:34:14.437Z,1.33
2023-04-14T15:36:46.224Z,1.17
2023-04-14T15:39:15.549Z,1.90
2023-04-14T15:41:50.623Z,1.40
2023-04-14T15:44:19.885Z,1.00
2023-04-14T15:46:53.822Z,1.07
2023-04-14T15:49:26.348Z,1.33
2023-04-14T15:51:53.547Z,2.13
2023-04-14T15:54:26.223Z,1.07
2023-04-14T15:56:57.751Z,2.10
2023-04-14T15:59:30.133Z,1.87
2023-04-14T16:01:57.037Z,1.90
2023-04-14T16:04:24.170Z,1.53
2023-04-14T16:06:53.447Z,1.23
2023-04-14T16:09:27.834Z,1.77
2023-04-14T16:11:59.458Z,2.10
2023-04-14T16:14:28.564Z,2.23
2023-04-14T16:16:57.624Z,1.90
2023-04-14T16:19:26.997Z,2.10
2023-04-14T16:21:55.135Z,1.90
2023-04-14T16:24:24.965Z,1.97
2023-04-14T16:26:54.857Z,1.40
2023-04-14T16:29:24.056Z,1.80
2023-04-14T16:31:53.420Z,2.03
2023-04-14T16:34:25.038Z,2.13
2023-04-14T16:36:54.289Z,2.40
2023-04-14T16:39:26.190Z,2.30
2023-04-14T16:41:57.788Z,2.63
2023-04-14T16:44:24.676Z,2.40
2023-04-14T16:46:56.176Z,1.90
2023-04-14T16:49:25.389Z,1.90
2023-04-14T16:51:57.259Z,2.40
2023-04-14T16:54:27.791Z,2.80
2023-04-14T16:56:57.009Z,3.27
2023-04-14T16:59:28.792Z,3.47
2023-04-14T17:01:58.114Z,2.60
2023-04-14T17:04:33.028Z,2.80
2023-04-14T17:07:00.426Z,2.77
2023-04-14T17:09:27.250Z,3.40
2023-04-14T17:12:01.690Z,3.13
2023-04-14T17:14:31.637Z,2.33
2023-04-14T17:17:05.581Z,2.43
2023-04-14T17:19:35.014Z,2.43
2023-04-14T17:22:06.928Z,1.87
2023-04-14T17:24:36.101Z,2.30
2023-04-14T17:27:08.467Z,2.77
2023-04-14T17:29:38.303Z,3.17
2023-04-14T17:32:05.426Z,3.47
2023-04-14T17:34:33.270Z,2.67
2023-04-14T17:37:00.360Z,2.73
2023-04-14T17:39:34.112Z,2.70
2023-04-14T17:42:03.609Z,2.23
2023-04-14T17:44:40.795Z,2.77
2023-04-14T17:47:15.378Z,2.97
2023-04-14T17:49:43.015Z,2.37
2023-04-14T17:52:23.827Z,2.83
2023-04-14T17:54:55.439Z,2.40
2023-04-14T17:57:26.935Z,3.00
2023-04-14T17:59:58.812Z,1.93
2023-04-14T18:02:25.778Z,2.40
2023-04-14T18:04:55.118Z,2.00
2023-04-14T18:07:29.786Z,2.50
2023-04-14T18:10:01.541Z,3.10
2023-04-14T18:12:33.615Z,2.27
2023-04-14T18:15:12.170Z,2.57
2023-04-14T18:17:42.539Z,2.17
2023-04-14T18:20:12.686Z,2.13
2023-04-14T18:22:47.749Z,1.50
2023-04-14T18:25:20.290Z,2.07
2023-04-14T18:30:24.861Z,1.50
2023-04-14T18:32:52.445Z,1.70
2023-04-14T18:35:23.974Z,2.00
2023-04-14T18:37:53.427Z,2.20
2023-04-14T18:40:20.480Z,2.17
2023-04-14T18:42:49.071Z,1.47
2023-04-14T18:45:18.112Z,1.77
2023-04-14T18:47:50.161Z,1.93
2023-04-14T18:50:17.112Z,1.70
2023-04-14T18:52:46.170Z,2.10
2023-04-14T18:55:15.217Z,2.57
2023-04-14T18:57:48.555Z,2.90
2023-04-14T19:00:17.896Z,2.10
2023-04-14T19:02:47.140Z,1.43
2023-04-14T19:05:14.101Z,1.60
2023-04-14T19:07:41.093Z,2.30
2023-04-14T19:10:08.458Z,1.83
2023-04-14T19:12:35.293Z,2.63
2023-04-14T19:15:04.724Z,2.80
2023-04-14T19:17:34.453Z,3.30
2023-04-14T19:20:04.696Z,3.00
2023-04-14T19:22:31.517Z,2.43
2023-04-14T19:25:01.119Z,2.40
2023-04-14T19:27:28.014Z,1.90
2023-04-14T19:29:57.654Z,1.73
2023-04-14T19:32:27.398Z,2.13
2023-04-14T19:34:56.674Z,2.30
2023-04-14T19:37:28.776Z,2.30
2023-04-14T19:39:55.597Z,2.20
2023-04-14T19:42:22.429Z,2.67
2023-04-14T19:44:53.666Z,2.43
2023-04-14T19:47:25.036Z,2.27
2023-04-14T19:49:59.734Z,2.33
2023-04-14T19:52:31.100Z,2.00
2023-04-14T19:55:03.357Z,2.80
2023-04-14T19:57:30.154Z,3.10
2023-04-14T19:59:59.394Z,2.27
2023-04-14T20:02:30.364Z,2.60
2023-04-14T20:04:57.322Z,3.90
2023-04-14T20:07:28.865Z,3.20
2023-04-14T20:09:59.528Z,2.80
2023-04-14T20:12:28.772Z,2.80
2023-04-14T20:14:58.321Z,2.90
2023-04-14T20:17:27.451Z,2.67
2023-04-14T20:20:02.525Z,3.07
2023-04-14T20:22:29.326Z,2.70
2023-04-14T20:24:56.406Z,2.30
2023-04-14T20:27:23.973Z,2.53
2023-04-14T20:29:51.406Z,3.13
2023-04-14T20:32:20.454Z,2.47
2023-04-14T20:34:55.239Z,2.80
2023-04-14T20:37:24.279Z,4.40
2023-04-14T20:39:53.443Z,2.90
2023-04-14T20:42:23.467Z,2.83
2023-04-14T20:44:50.516Z,2.87
2023-04-14T20:47:19.825Z,3.43
2023-04-14T20:49:53.417Z,3.37
2023-04-14T20:52:26.521Z,4.13
2023-04-14T20:54:55.947Z,3.50
2023-04-14T20:57:27.519Z,3.60
2023-04-14T20:59:56.922Z,3.90
2023-04-14T21:02:26.393Z,4.63
2023-04-14T21:04:55.342Z,3.53
2023-04-14T21:07:27.108Z,3.60
2023-04-14T21:09:56.421Z,3.20
2023-04-14T21:12:23.259Z,2.63
2023-04-14T21:15:40.848Z,3.03
2023-04-14T21:17:44.092Z,3.10
2023-04-14T21:20:14.056Z,3.47
2023-04-14T21:22:43.087Z,2.77
2023-04-14T21:25:17.854Z,3.27
2023-04-14T21:27:49.703Z,2.60
2023-04-14T21:30:19.135Z,3.00
2023-04-14T21:32:50.806Z,2.97
2023-04-14T21:35:22.241Z,2.77
2023-04-14T21:37:53.661Z,2.97
2023-04-14T21:40:25.187Z,2.60
2023-04-14T21:42:57.602Z,2.47
2023-04-14T21:45:27.794Z,3.53
2023-04-14T21:48:03.153Z,3.30
2023-04-14T21:50:31.911Z,3.53
2023-04-14T21:53:02.816Z,3.27
2023-04-14T21:55:32.381Z,4.10
2023-04-14T21:58:06.773Z,3.13
2023-04-14T22:00:37.409Z,3.07
2023-04-14T22:03:06.722Z,3.10
2023-04-14T22:05:36.066Z,3.60
2023-04-14T22:08:10.670Z,3.10
2023-04-14T22:10:38.421Z,3.70
2023-04-14T22:13:07.886Z,3.03
2023-04-14T22:15:40.201Z,3.47
2023-04-14T22:18:12.977Z,3.20
2023-04-14T22:20:42.322Z,3.20
2023-04-14T22:23:12.493Z,3.00
2023-04-14T22:25:44.103Z,3.20
2023-04-14T22:28:13.419Z,3.60
2023-04-14T22:30:42.629Z,3.17
2023-04-14T22:33:14.038Z,3.30
2023-04-14T22:35:48.737Z,3.00
2023-04-14T22:38:17.872Z,2.83
2023-04-14T22:40:52.345Z,3.00
2023-04-14T22:43:27.326Z,3.80
2023-04-14T22:45:56.823Z,3.57
2023-04-14T22:48:26.136Z,3.53
2023-04-14T22:50:56.092Z,3.30
2023-04-14T22:53:27.765Z,3.10
2023-04-14T22:55:59.476Z,3.33
2023-04-14T22:58:32.163Z,2.77
2023-04-14T23:01:12.086Z,3.20
2023-04-14T23:03:50.114Z,2.57
2023-04-14T23:06:20.330Z,3.80
2023-04-14T23:08:52.362Z,2.80
2023-04-14T23:11:22.143Z,2.70
2023-04-14T23:13:50.308Z,3.87
2023-04-14T23:16:20.751Z,2.60
2023-04-14T23:18:52.478Z,3.57
2023-04-14T23:21:23.381Z,2.57
2023-04-14T23:23:52.644Z,2.90
2023-04-14T23:26:21.447Z,3.10
2023-04-14T23:28:50.747Z,2.47
2023-04-14T23:31:18.209Z,3.13
2023-04-14T23:33:53.088Z,3.63
2023-04-14T23:36:27.006Z,3.50
2023-04-14T23:39:01.406Z,2.10
2023-04-14T23:41:33.194Z,3.03
2023-04-14T23:44:03.185Z,3.70
2023-04-14T23:46:32.782Z,3.77
2023-04-14T23:49:10.482Z,2.73
2023-04-14T23:51:48.936Z,3.23
2023-04-14T23:54:15.664Z,3.43
2023-04-14T23:56:44.742Z,3.10
2023-04-14T23:59:16.741Z,3.10
